Time;durP1;ratioP1;P1;durP2;ratioP2;P2;SDS_P1;SDS_P2;PMS_P1;PMS_P2;Temp;Humidity;BMP_temperature;BMP_pressure;BME280_temperature;BME280_humidity;BME280_pressure;Samples;Min_cycle;Max_cycle;Signal;HPM_P1;HPM_P2
2023/08/12 00:01:50;;;;;;;5.10;4.40;;;20.20;99.90;;;;;;4994612;28;20495;-61
2023/08/12 00:04:17;;;;;;;5.63;4.87;;;20.20;99.90;;;;;;4992625;28;20474;-62
2023/08/12 00:06:44;;;;;;;7.80;5.00;;;20.20;99.90;;;;;;4976944;28;20459;-61
2023/08/12 00:09:11;;;;;;;5.33;4.83;;;20.20;99.90;;;;;;4976487;28;20442;-62
2023/08/12 00:11:38;;;;;;;7.30;5.03;;;20.20;99.90;;;;;;4976227;28;20736;-61
2023/08/12 00:14:06;;;;;;;6.63;5.00;;;20.20;99.90;;;;;;4976127;28;20463;-60
2023/08/12 00:16:33;;;;;;;5.50;4.20;;;20.20;99.90;;;;;;4976152;28;20518;-62
2023/08/12 00:19:00;;;;;;;4.80;4.33;;;20.10;99.90;;;;;;4976133;28;20443;-62
2023/08/12 00:21:27;;;;;;;5.27;4.80;;;20.10;99.90;;;;;;4975848;28;20549;-61
2023/08/12 00:23:54;;;;;;;4.90;4.50;;;20.10;99.90;;;;;;4976464;28;20534;-60
2023/08/12 00:26:21;;;;;;;7.33;5.10;;;20.10;99.90;;;;;;4976203;28;20443;-60
2023/08/12 00:28:50;;;;;;;5.30;4.40;;;20.10;99.90;;;;;;4976048;28;20962;-61
2023/08/12 00:31:18;;;;;;;5.20;4.70;;;20.10;99.90;;;;;;4976983;28;20489;-60
2023/08/12 00:33:45;;;;;;;5.57;4.40;;;20.10;99.90;;;;;;4977589;28;20772;-63
2023/08/12 00:36:12;;;;;;;4.60;4.13;;;20.00;99.90;;;;;;4979108;28;20513;-67
2023/08/12 00:38:41;;;;;;;10.37;5.00;;;20.00;99.90;;;;;;4987865;28;20532;-63
2023/08/12 00:41:08;;;;;;;5.20;4.63;;;20.00;99.90;;;;;;5000130;28;20532;-61
2023/08/12 00:43:35;;;;;;;5.30;4.80;;;20.00;99.90;;;;;;5000524;28;20950;-62
2023/08/12 00:46:02;;;;;;;4.93;4.40;;;19.90;99.90;;;;;;5000499;28;20465;-62
2023/08/12 00:48:30;;;;;;;5.87;5.13;;;19.90;99.90;;;;;;5000973;28;20449;-63
2023/08/12 00:50:57;;;;;;;6.10;4.20;;;19.90;99.90;;;;;;5000071;28;20528;-62
2023/08/12 00:53:24;;;;;;;7.57;5.90;;;19.90;99.90;;;;;;4998726;28;20951;-61
2023/08/12 00:55:51;;;;;;;5.20;4.70;;;19.90;99.90;;;;;;4997542;28;20540;-62
2023/08/12 00:58:18;;;;;;;4.30;4.00;;;19.90;99.90;;;;;;4981697;28;20990;-62
2023/08/12 01:00:45;;;;;;;5.53;4.40;;;19.90;99.90;;;;;;4976409;28;20493;-62
2023/08/12 01:03:12;;;;;;;9.83;5.60;;;19.90;99.90;;;;;;4976305;28;20498;-65
2023/08/12 01:05:41;;;;;;;6.87;5.17;;;19.90;99.90;;;;;;4977084;28;20470;-70
2023/08/12 01:08:08;;;;;;;6.90;4.50;;;19.90;99.90;;;;;;4976173;28;20439;-63
2023/08/12 01:10:37;;;;;;;6.43;4.67;;;19.90;99.90;;;;;;4975634;28;20510;-62
2023/08/12 01:13:14;;;;;;;6.13;5.63;;;19.90;99.90;;;;;;4975762;28;20455;-62
2023/08/12 01:15:42;;;;;;;5.73;4.73;;;19.80;99.90;;;;;;4976153;28;20474;-60
2023/08/12 01:18:09;;;;;;;5.47;4.20;;;19.80;99.90;;;;;;4976535;28;20578;-62
2023/08/12 01:20:36;;;;;;;5.50;4.30;;;19.80;99.90;;;;;;4976844;28;20537;-62
2023/08/12 01:23:15;;;;;;;7.70;5.13;;;19.80;99.90;;;;;;4976067;28;20489;-61
2023/08/12 01:25:42;;;;;;;4.80;4.40;;;19.80;99.90;;;;;;4975965;28;20458;-61
2023/08/12 01:28:09;;;;;;;5.33;4.63;;;19.70;99.90;;;;;;4989655;28;20486;-61
2023/08/12 01:30:40;;;;;;;7.77;5.13;;;19.70;99.90;;;;;;4998256;28;20466;-64
2023/08/12 01:33:15;;;;;;;5.47;4.40;;;19.70;99.90;;;;;;4999553;28;20430;-62
2023/08/12 01:35:47;;;;;;;4.63;4.17;;;19.70;99.90;;;;;;4998229;28;20989;-62
2023/08/12 01:38:16;;;;;;;7.17;5.07;;;19.70;99.90;;;;;;4998892;28;20564;-66
2023/08/12 01:40:44;;;;;;;4.63;4.23;;;19.60;99.90;;;;;;4999414;28;20480;-64
2023/08/12 01:43:11;;;;;;;4.40;4.10;;;19.60;99.90;;;;;;4996024;28;20477;-64
2023/08/12 01:45:38;;;;;;;6.30;4.53;;;19.60;99.90;;;;;;4996028;28;20958;-63
2023/08/12 01:48:06;;;;;;;10.23;5.40;;;19.50;99.90;;;;;;4998649;28;20760;-64
2023/08/12 01:50:33;;;;;;;5.07;4.67;;;19.50;99.90;;;;;;4998177;28;20533;-62
2023/08/12 01:53:00;;;;;;;4.93;4.53;;;19.50;99.90;;;;;;4998328;28;20922;-61
2023/08/12 01:55:28;;;;;;;9.90;5.37;;;19.50;99.90;;;;;;4998123;28;20454;-62
2023/08/12 01:57:56;;;;;;;5.67;5.07;;;19.50;99.90;;;;;;4998067;28;20517;-61
2023/08/12 02:00:23;;;;;;;5.00;4.50;;;19.40;99.90;;;;;;4998354;28;20925;-62
2023/08/12 02:02:50;;;;;;;7.53;5.30;;;19.40;99.90;;;;;;5000854;28;20895;-62
2023/08/12 02:05:17;;;;;;;6.57;4.03;;;19.40;99.90;;;;;;4998720;28;20962;-62
2023/08/12 02:07:44;;;;;;;5.17;4.67;;;19.40;99.90;;;;;;5000412;28;20469;-63
2023/08/12 02:10:14;;;;;;;6.00;5.17;;;19.40;99.90;;;;;;5000492;28;20552;-62
2023/08/12 02:12:42;;;;;;;4.40;4.03;;;19.40;99.90;;;;;;5000302;28;20488;-58
2023/08/12 02:15:10;;;;;;;6.30;4.40;;;19.40;99.90;;;;;;4999208;28;20465;-61
2023/08/12 02:17:37;;;;;;;6.23;4.50;;;19.30;99.90;;;;;;4997597;28;20518;-61
2023/08/12 02:20:05;;;;;;;5.93;4.77;;;19.30;99.90;;;;;;4997098;28;20545;-62
2023/08/12 02:22:32;;;;;;;6.23;4.67;;;19.30;99.90;;;;;;4997833;28;20462;-62
2023/08/12 02:24:59;;;;;;;11.73;4.23;;;19.30;99.90;;;;;;4997595;28;20914;-61
2023/08/12 02:27:27;;;;;;;5.30;4.50;;;19.30;99.90;;;;;;4997788;28;20480;-61
2023/08/12 02:29:55;;;;;;;4.87;4.40;;;19.30;99.90;;;;;;4997521;28;20965;-61
2023/08/12 02:32:22;;;;;;;7.20;4.30;;;19.30;99.90;;;;;;4997141;28;20818;-61
2023/08/12 02:34:49;;;;;;;7.00;5.17;;;19.30;99.90;;;;;;4997344;28;20450;-62
2023/08/12 02:37:16;;;;;;;7.00;4.60;;;19.30;99.90;;;;;;4997345;28;20506;-61
2023/08/12 02:39:43;;;;;;;4.93;4.50;;;19.40;99.90;;;;;;4998900;28;20500;-62
2023/08/12 02:42:10;;;;;;;11.10;5.67;;;19.40;99.90;;;;;;5000015;28;20472;-63
2023/08/12 02:44:36;;;;;;;5.40;4.83;;;19.40;99.90;;;;;;4999186;28;20450;-65
2023/08/12 02:47:04;;;;;;;5.90;5.00;;;19.40;99.90;;;;;;4997909;28;20474;-64
2023/08/12 02:49:31;;;;;;;4.00;3.67;;;19.40;99.90;;;;;;4998247;28;20442;-62
2023/08/12 02:51:58;;;;;;;5.20;4.70;;;19.40;99.90;;;;;;4997506;28;20470;-59
2023/08/12 02:54:25;;;;;;;9.60;3.80;;;19.40;99.90;;;;;;4998087;28;20462;-62
2023/08/12 02:56:52;;;;;;;7.10;4.40;;;19.40;99.90;;;;;;4996900;28;20497;-64
2023/08/12 02:59:19;;;;;;;6.40;4.77;;;19.40;99.90;;;;;;4998017;28;20592;-61
2023/08/12 03:01:46;;;;;;;4.20;3.87;;;19.40;99.90;;;;;;4998448;28;20467;-64
2023/08/12 03:04:14;;;;;;;9.20;4.70;;;19.40;99.90;;;;;;5002660;28;20516;-62
2023/08/12 03:06:41;;;;;;;5.57;4.80;;;19.40;99.90;;;;;;5005146;28;20442;-62
2023/08/12 03:09:08;;;;;;;5.80;4.73;;;19.30;99.90;;;;;;5004453;28;20470;-62
2023/08/12 03:11:34;;;;;;;5.47;4.80;;;19.30;99.90;;;;;;5001599;28;20496;-63
2023/08/12 03:14:01;;;;;;;4.73;4.27;;;19.30;99.90;;;;;;4999497;28;20464;-63
2023/08/12 03:16:28;;;;;;;4.40;4.10;;;19.30;99.90;;;;;;4998876;28;20478;-64
2023/08/12 03:18:55;;;;;;;6.20;4.20;;;19.30;99.90;;;;;;4996939;28;20485;-62
2023/08/12 03:21:24;;;;;;;8.17;4.17;;;19.30;99.90;;;;;;4996753;28;20450;-62
2023/08/12 03:23:51;;;;;;;4.80;3.73;;;19.30;99.90;;;;;;4996639;28;20828;-64
2023/08/12 03:26:17;;;;;;;5.80;5.20;;;19.30;99.90;;;;;;4996618;28;20521;-62
2023/08/12 03:28:44;;;;;;;8.90;3.83;;;19.30;99.90;;;;;;4996522;28;20520;-62
2023/08/12 03:31:11;;;;;;;4.90;4.23;;;19.30;99.90;;;;;;4995915;28;20478;-63
2023/08/12 03:33:38;;;;;;;5.43;4.90;;;19.30;99.90;;;;;;4996414;28;20548;-60
2023/08/12 03:36:06;;;;;;;5.57;4.87;;;19.30;99.90;;;;;;4996485;28;20835;-62
2023/08/12 03:38:35;;;;;;;5.87;4.53;;;19.20;99.90;;;;;;4996095;28;20496;-61
2023/08/12 03:41:02;;;;;;;6.10;4.37;;;19.20;99.90;;;;;;4996175;28;20473;-61
2023/08/12 03:43:29;;;;;;;6.03;4.70;;;19.10;99.90;;;;;;4996003;28;20470;-62
2023/08/12 03:45:56;;;;;;;9.80;6.07;;;19.10;99.90;;;;;;4996516;28;20453;-61
2023/08/12 03:48:23;;;;;;;5.47;4.57;;;19.10;99.90;;;;;;4977194;28;20454;-61
2023/08/12 03:50:50;;;;;;;4.97;4.47;;;19.10;99.90;;;;;;4976736;28;20533;-61
2023/08/12 03:53:17;;;;;;;5.20;4.77;;;19.10;99.90;;;;;;4976581;28;20494;-61
2023/08/12 03:55:45;;;;;;;9.23;4.70;;;19.10;99.90;;;;;;4976486;28;20446;-63
2023/08/12 03:58:12;;;;;;;4.60;4.20;;;19.10;99.90;;;;;;4976666;28;20561;-65
2023/08/12 04:00:42;;;;;;;6.00;4.30;;;19.10;99.90;;;;;;4976694;28;20517;-63
2023/08/12 04:03:09;;;;;;;4.53;4.13;;;19.10;99.90;;;;;;4976659;28;20957;-64
2023/08/12 04:05:36;;;;;;;5.07;4.20;;;19.00;99.90;;;;;;4976524;28;20478;-62
2023/08/12 04:08:03;;;;;;;5.60;4.90;;;19.00;99.90;;;;;;4975869;28;20975;-62
2023/08/12 04:10:31;;;;;;;5.67;4.70;;;18.90;99.90;;;;;;4975700;28;20435;-61
2023/08/12 04:12:59;;;;;;;5.83;5.20;;;18.90;99.90;;;;;;4976339;28;20558;-63
2023/08/12 04:15:26;;;;;;;5.50;5.00;;;18.90;99.90;;;;;;4978186;28;20749;-62
2023/08/12 04:17:53;;;;;;;11.00;4.80;;;18.90;99.90;;;;;;4995767;28;20496;-62
2023/08/12 04:20:22;;;;;;;6.07;4.90;;;18.90;99.90;;;;;;4995999;28;20431;-63
2023/08/12 04:22:49;;;;;;;5.03;4.53;;;18.90;99.90;;;;;;4997690;28;20450;-61
2023/08/12 04:25:16;;;;;;;5.60;4.43;;;18.90;99.90;;;;;;5004046;28;20442;-64
2023/08/12 04:27:43;;;;;;;6.10;5.00;;;19.00;99.90;;;;;;4997746;28;20508;-65
2023/08/12 04:30:12;;;;;;;6.80;4.63;;;19.00;99.90;;;;;;4995506;28;20533;-63
2023/08/12 04:32:42;;;;;;;5.17;4.43;;;19.00;99.90;;;;;;4995687;28;20482;-63
2023/08/12 04:35:10;;;;;;;5.13;4.73;;;19.00;99.90;;;;;;4995558;28;20508;-61
2023/08/12 04:37:37;;;;;;;4.60;4.20;;;19.00;99.90;;;;;;4995191;28;20457;-62
2023/08/12 04:40:05;;;;;;;4.53;4.13;;;19.00;99.90;;;;;;4995733;28;20564;-64
2023/08/12 04:42:32;;;;;;;6.40;4.93;;;19.00;99.90;;;;;;4995539;28;20450;-62
2023/08/12 04:44:59;;;;;;;5.90;4.83;;;19.00;99.90;;;;;;4995165;28;20532;-62
2023/08/12 04:47:27;;;;;;;6.63;5.00;;;19.00;99.90;;;;;;4996326;28;20935;-58
2023/08/12 04:49:54;;;;;;;5.40;4.53;;;19.00;99.90;;;;;;5002545;28;20484;-61
2023/08/12 04:52:21;;;;;;;7.00;4.30;;;19.00;99.90;;;;;;4996332;28;20521;-61
2023/08/12 04:54:48;;;;;;;5.67;5.17;;;19.00;99.90;;;;;;4978852;28;20481;-61
2023/08/12 04:57:15;;;;;;;6.63;4.43;;;19.00;99.90;;;;;;4978445;28;20447;-62
2023/08/12 04:59:42;;;;;;;5.87;4.10;;;19.00;99.90;;;;;;4976627;28;20536;-62
2023/08/12 05:02:09;;;;;;;5.17;4.67;;;19.10;99.90;;;;;;4979805;28;20453;-62
2023/08/12 05:04:37;;;;;;;5.97;4.63;;;19.10;99.90;;;;;;4982112;28;20547;-61
2023/08/12 05:07:04;;;;;;;5.13;4.67;;;19.20;99.90;;;;;;4981349;28;20447;-62
2023/08/12 05:09:33;;;;;;;7.27;5.17;;;19.20;99.90;;;;;;4981675;28;20959;-62
2023/08/12 05:12:02;;;;;;;5.37;4.83;;;19.30;99.90;;;;;;4978829;28;20451;-62
2023/08/12 05:14:29;;;;;;;5.10;3.90;;;19.30;99.90;;;;;;4977410;28;20475;-61
2023/08/12 05:16:56;;;;;;;4.37;3.97;;;19.40;99.90;;;;;;4977864;28;20446;-62
2023/08/12 05:19:23;;;;;;;5.03;4.53;;;19.50;99.90;;;;;;4978464;28;20525;-62
2023/08/12 05:21:51;;;;;;;8.17;4.90;;;19.70;99.90;;;;;;4995196;28;20509;-62
2023/08/12 05:24:27;;;;;;;5.30;4.07;;;19.80;99.90;;;;;;5003536;28;20501;-64
2023/08/12 05:26:54;;;;;;;6.80;5.30;;;19.90;99.90;;;;;;5001235;28;20472;-63
2023/08/12 05:29:21;;;;;;;5.17;4.77;;;20.00;99.90;;;;;;4997668;28;20561;-62
2023/08/12 05:31:48;;;;;;;4.87;4.47;;;20.20;99.90;;;;;;4984289;28;20438;-62
2023/08/12 05:34:14;;;;;;;5.33;4.83;;;20.30;99.90;;;;;;4984750;28;20515;-62
2023/08/12 05:36:41;;;;;;;5.43;4.43;;;20.40;99.90;;;;;;4983202;28;20822;-62
2023/08/12 05:39:10;;;;;;;4.77;4.13;;;20.50;99.90;;;;;;4997658;28;20554;-62
2023/08/12 05:41:37;;;;;;;5.37;4.00;;;20.70;99.90;;;;;;4998685;28;20454;-62
2023/08/12 05:44:05;;;;;;;5.00;4.60;;;20.80;99.90;;;;;;4998480;28;20853;-62
2023/08/12 05:46:32;;;;;;;7.53;4.40;;;20.90;99.90;;;;;;4998488;28;20474;-62
2023/08/12 05:48:59;;;;;;;6.10;4.13;;;21.00;99.90;;;;;;4998226;28;20449;-61
2023/08/12 05:51:26;;;;;;;5.47;4.70;;;21.20;99.90;;;;;;4998355;28;20442;-61
2023/08/12 05:53:53;;;;;;;4.33;3.93;;;21.20;99.90;;;;;;4998536;28;20442;-62
2023/08/12 05:56:21;;;;;;;4.20;3.77;;;21.30;99.90;;;;;;4998460;28;20462;-64
2023/08/12 05:58:48;;;;;;;4.90;4.50;;;21.30;99.90;;;;;;4998269;28;20551;-62
2023/08/12 06:01:15;;;;;;;9.27;5.73;;;21.30;99.90;;;;;;4983147;28;20457;-64
2023/08/12 06:03:42;;;;;;;7.00;4.40;;;21.40;99.90;;;;;;4981068;28;20971;-66
2023/08/12 06:06:09;;;;;;;11.53;5.03;;;21.40;99.90;;;;;;4980373;28;20481;-61
2023/08/12 06:08:36;;;;;;;4.73;4.13;;;21.40;99.90;;;;;;4979168;28;20493;-61
2023/08/12 06:11:03;;;;;;;6.70;4.50;;;21.40;99.90;;;;;;4980276;28;20498;-65
2023/08/12 06:13:31;;;;;;;5.70;5.20;;;21.50;99.90;;;;;;5000528;28;21001;-65
2023/08/12 06:15:58;;;;;;;4.20;3.80;;;21.60;99.90;;;;;;4999977;28;20513;-62
2023/08/12 06:18:28;;;;;;;5.00;4.60;;;21.70;99.90;;;;;;5003843;28;20450;-65
2023/08/12 06:20:55;;;;;;;8.90;4.23;;;21.70;99.90;;;;;;5003756;28;20482;-62
2023/08/12 06:23:25;;;;;;;6.80;4.23;;;21.80;99.90;;;;;;5003189;28;20457;-62
2023/08/12 06:25:52;;;;;;;4.73;4.23;;;21.80;99.90;;;;;;5002363;28;20926;-65
2023/08/12 06:28:19;;;;;;;4.30;3.40;;;21.80;99.90;;;;;;4997749;28;20548;-62
2023/08/12 06:30:48;;;;;;;4.53;3.80;;;21.90;99.90;;;;;;4997352;28;20939;-62
2023/08/12 06:33:15;;;;;;;5.53;3.80;;;22.00;99.90;;;;;;4996381;28;20544;-62
2023/08/12 06:35:42;;;;;;;4.97;4.47;;;22.10;99.90;;;;;;4997426;28;20548;-62
2023/08/12 06:38:10;;;;;;;4.70;4.30;;;22.10;99.90;;;;;;5015510;28;20785;-62
2023/08/12 06:40:36;;;;;;;11.10;6.50;;;22.20;99.90;;;;;;5017381;28;20504;-61
2023/08/12 06:43:04;;;;;;;4.37;3.97;;;22.30;99.90;;;;;;4999346;28;20426;-60
2023/08/12 06:45:30;;;;;;;4.83;4.43;;;22.30;99.90;;;;;;4996605;28;20486;-62
2023/08/12 06:47:59;;;;;;;4.40;4.00;;;22.40;99.90;;;;;;4986673;28;20463;-61
2023/08/12 06:50:26;;;;;;;4.03;3.40;;;22.50;99.90;;;;;;4982597;28;20462;-62
2023/08/12 06:52:52;;;;;;;4.83;4.20;;;22.60;99.90;;;;;;4981586;28;20462;-62
2023/08/12 06:55:19;;;;;;;5.13;4.17;;;22.60;99.90;;;;;;4982777;28;20494;-62
2023/08/12 06:57:46;;;;;;;4.50;4.10;;;22.70;99.90;;;;;;4982204;28;20459;-62
2023/08/12 07:00:14;;;;;;;8.67;4.57;;;22.70;99.90;;;;;;4981929;28;20978;-61
2023/08/12 07:02:42;;;;;;;4.13;3.80;;;22.70;99.90;;;;;;4982196;28;20462;-62
2023/08/12 07:05:11;;;;;;;4.73;4.00;;;22.70;99.90;;;;;;4976992;28;20467;-61
2023/08/12 07:07:38;;;;;;;5.90;4.90;;;22.70;99.90;;;;;;4977340;28;20495;-62
2023/08/12 07:10:06;;;;;;;4.53;4.13;;;22.80;99.90;;;;;;4977564;28;20915;-61
2023/08/12 07:12:33;;;;;;;4.47;4.07;;;22.90;99.90;;;;;;4977415;28;20533;-63
2023/08/12 07:15:00;;;;;;;5.70;5.20;;;23.00;99.90;;;;;;4977367;28;20442;-63
2023/08/12 07:17:27;;;;;;;4.90;4.40;;;23.00;99.90;;;;;;4977367;28;20534;-63
2023/08/12 07:19:54;;;;;;;6.03;4.50;;;23.10;99.90;;;;;;4965546;28;20575;-63
2023/08/12 07:22:22;;;;;;;5.53;4.33;;;23.30;99.90;;;;;;4960044;28;20491;-63
2023/08/12 07:24:52;;;;;;;10.23;6.10;;;23.50;99.90;;;;;;4961812;28;20479;-65
2023/08/12 07:27:19;;;;;;;5.00;4.50;;;23.60;99.90;;;;;;4961873;29;20471;-62
2023/08/12 07:29:47;;;;;;;9.20;4.90;;;23.90;99.90;;;;;;4978186;28;20789;-62
2023/08/12 07:32:14;;;;;;;6.90;5.60;;;24.10;99.90;;;;;;4980756;28;20471;-62
2023/08/12 07:34:41;;;;;;;6.87;4.30;;;24.30;99.90;;;;;;4980954;28;20438;-62
2023/08/12 07:37:07;;;;;;;6.33;4.10;;;24.50;99.90;;;;;;4980826;28;20542;-64
2023/08/12 07:39:36;;;;;;;6.07;4.70;;;24.60;99.90;;;;;;4995333;28;20481;-62
2023/08/12 07:42:03;;;;;;;6.43;4.57;;;24.70;99.90;;;;;;4999944;28;21018;-60
2023/08/12 07:44:30;;;;;;;12.23;5.30;;;24.70;99.90;;;;;;4998387;28;20473;-61
2023/08/12 07:46:56;;;;;;;4.40;4.03;;;24.80;99.90;;;;;;4997350;28;20557;-62
2023/08/12 07:49:23;;;;;;;5.60;5.10;;;24.80;99.90;;;;;;4998603;28;20505;-61
2023/08/12 07:51:51;;;;;;;7.57;5.43;;;24.80;99.90;;;;;;4999622;28;20508;-61
2023/08/12 07:54:17;;;;;;;5.83;5.27;;;24.90;99.90;;;;;;4997647;28;20502;-62
2023/08/12 07:56:46;;;;;;;6.67;4.00;;;24.90;99.90;;;;;;4995932;28;21002;-65
2023/08/12 07:59:13;;;;;;;4.90;4.30;;;25.00;99.90;;;;;;4996104;28;20525;-60
2023/08/12 08:01:43;;;;;;;5.93;4.00;;;24.90;99.90;;;;;;4995756;28;20556;-62
2023/08/12 08:04:09;;;;;;;6.07;5.47;;;24.90;99.90;;;;;;4995817;28;20454;-62
2023/08/12 08:06:36;;;;;;;6.77;4.50;;;25.10;99.90;;;;;;4995307;28;20557;-62
2023/08/12 08:09:03;;;;;;;4.80;4.30;;;25.20;99.90;;;;;;4995946;28;20809;-62
2023/08/12 08:11:31;;;;;;;5.40;4.03;;;25.40;99.90;;;;;;4996061;28;20862;-61
2023/08/12 08:14:00;;;;;;;5.63;5.13;;;25.60;99.90;;;;;;4995652;28;20519;-62
2023/08/12 08:16:27;;;;;;;4.53;4.13;;;25.80;99.90;;;;;;4995900;28;20508;-62
2023/08/12 08:18:54;;;;;;;4.50;4.10;;;26.00;99.90;;;;;;4995903;28;20434;-63
2023/08/12 08:21:21;;;;;;;3.63;3.40;;;26.20;99.90;;;;;;4995512;28;20501;-63
2023/08/12 08:23:47;;;;;;;4.50;4.17;;;26.00;99.90;;;;;;4988176;28;20538;-62
2023/08/12 08:26:15;;;;;;;6.30;4.83;;;25.90;99.90;;;;;;4977517;28;20525;-61
2023/08/12 08:28:42;;;;;;;11.93;5.07;;;25.70;99.90;;;;;;4977498;28;20767;-65
2023/08/12 08:31:10;;;;;;;5.20;4.70;;;25.60;99.90;;;;;;4976202;28;20475;-62
2023/08/12 08:33:37;;;;;;;6.70;3.90;;;25.50;99.90;;;;;;4975970;28;20478;-62
2023/08/12 08:36:05;;;;;;;8.00;5.40;;;25.30;99.90;;;;;;4976182;28;20453;-62
2023/08/12 08:38:32;;;;;;;5.30;4.80;;;25.00;99.90;;;;;;4976261;28;20481;-62
2023/08/12 08:40:59;;;;;;;6.97;5.57;;;24.90;99.90;;;;;;4976613;28;20581;-60
2023/08/12 08:43:27;;;;;;;7.67;5.30;;;24.60;99.90;;;;;;4975985;28;20463;-62
2023/08/12 08:45:55;;;;;;;5.50;4.90;;;24.50;99.90;;;;;;4986153;28;20565;-62
2023/08/12 08:48:24;;;;;;;6.47;5.13;;;24.30;99.90;;;;;;4996164;28;20494;-62
2023/08/12 08:50:52;;;;;;;5.87;5.37;;;24.20;99.90;;;;;;4996127;28;20934;-62
2023/08/12 08:53:19;;;;;;;5.60;5.07;;;24.10;99.90;;;;;;4995303;28;20529;-59
2023/08/12 08:55:47;;;;;;;5.93;5.27;;;24.10;99.90;;;;;;4997212;28;20438;-61
2023/08/12 08:58:13;;;;;;;8.33;4.90;;;24.10;99.90;;;;;;4999208;28;20637;-60
2023/08/12 09:00:41;;;;;;;5.90;5.30;;;24.10;99.90;;;;;;4999158;28;20577;-61
2023/08/12 09:03:10;;;;;;;7.63;5.17;;;24.10;99.90;;;;;;5000532;28;20493;-59
2023/08/12 09:05:39;;;;;;;5.13;4.70;;;24.10;99.90;;;;;;4999010;28;20526;-60
2023/08/12 09:08:10;;;;;;;5.33;4.50;;;24.10;99.90;;;;;;4998914;28;20952;-61
2023/08/12 09:10:39;;;;;;;7.63;5.17;;;24.30;99.90;;;;;;5001025;28;20772;-60
2023/08/12 09:13:07;;;;;;;6.60;6.00;;;24.30;99.90;;;;;;5003273;28;20473;-60
2023/08/12 09:15:33;;;;;;;5.30;4.80;;;24.40;99.90;;;;;;5001107;28;20819;-62
2023/08/12 09:18:01;;;;;;;9.10;5.43;;;24.40;99.90;;;;;;4998969;28;20469;-61
2023/08/12 09:20:28;;;;;;;7.20;5.53;;;24.40;99.90;;;;;;4998696;28;20513;-60
2023/08/12 09:23:00;;;;;;;6.07;5.23;;;24.50;99.90;;;;;;4998972;28;20480;-61
2023/08/12 09:25:29;;;;;;;10.30;5.30;;;24.60;99.90;;;;;;4999591;28;20450;-59
2023/08/12 09:27:57;;;;;;;8.13;5.17;;;24.70;99.90;;;;;;5003181;28;20474;-59
2023/08/12 09:30:23;;;;;;;5.70;4.70;;;24.80;99.90;;;;;;5002150;28;20434;-60
2023/08/12 09:33:01;;;;;;;5.13;4.63;;;25.30;99.90;;;;;;5004367;28;20473;-60
2023/08/12 09:35:34;;;;;;;5.57;5.00;;;26.00;99.90;;;;;;5004211;28;20448;-60
2023/08/12 09:38:04;;;;;;;7.97;5.70;;;26.50;99.90;;;;;;4998965;28;20953;-61
2023/08/12 09:40:32;;;;;;;8.17;7.33;;;26.70;99.90;;;;;;4998263;28;20572;-62
2023/08/12 09:42:59;;;;;;;8.60;5.23;;;26.80;99.90;;;;;;4998369;28;20486;-60
2023/08/12 09:45:26;;;;;;;5.43;4.93;;;26.70;99.90;;;;;;4998395;28;20454;-60
2023/08/12 09:47:54;;;;;;;5.17;4.20;;;26.50;99.90;;;;;;4998443;28;20438;-60
2023/08/12 09:50:23;;;;;;;7.97;5.97;;;26.30;99.90;;;;;;4998281;28;20504;-60
2023/08/12 09:52:51;;;;;;;7.53;5.37;;;26.20;99.90;;;;;;5000650;28;20446;-60
2023/08/12 09:55:21;;;;;;;5.23;4.83;;;26.10;99.90;;;;;;4998949;28;20481;-60
2023/08/12 09:57:53;;;;;;;7.17;5.10;;;26.00;99.90;;;;;;4998225;28;20458;-63
2023/08/12 10:00:21;;;;;;;8.50;6.20;;;25.90;99.90;;;;;;4998401;28;20466;-60
2023/08/12 10:02:51;;;;;;;5.97;5.47;;;26.10;99.90;;;;;;4998104;28;20560;-60
2023/08/12 10:05:22;;;;;;;5.67;5.17;;;26.30;99.90;;;;;;4997980;28;21074;-60
2023/08/12 10:07:49;;;;;;;5.70;4.70;;;26.50;99.90;;;;;;4997808;28;20541;-60
2023/08/12 10:10:17;;;;;;;4.77;4.30;;;26.60;99.90;;;;;;4997854;28;20482;-60
2023/08/12 10:12:46;;;;;;;5.73;5.13;;;26.60;99.90;;;;;;4998200;28;20442;-61
2023/08/12 10:15:13;;;;;;;5.73;5.23;;;26.70;99.90;;;;;;4998160;28;20486;-62
2023/08/12 10:17:42;;;;;;;5.23;4.73;;;26.70;99.90;;;;;;4997743;28;20445;-61
2023/08/12 10:20:10;;;;;;;9.20;4.97;;;26.70;99.90;;;;;;4997842;28;20478;-60
2023/08/12 10:22:39;;;;;;;6.13;5.53;;;26.60;99.90;;;;;;4997684;28;20508;-62
2023/08/12 10:25:09;;;;;;;5.97;5.47;;;26.40;99.90;;;;;;4997414;28;20469;-59
2023/08/12 10:27:37;;;;;;;6.50;5.47;;;26.20;99.90;;;;;;4997719;28;20934;-60
2023/08/12 10:30:07;;;;;;;5.83;5.10;;;26.00;99.90;;;;;;4997427;28;20544;-60
2023/08/12 10:32:34;;;;;;;6.00;5.47;;;26.00;99.90;;;;;;4997730;28;20862;-60
2023/08/12 10:35:02;;;;;;;6.27;5.63;;;26.00;99.90;;;;;;5019803;28;20578;-56
2023/08/12 10:37:33;;;;;;;6.20;5.70;;;26.10;99.90;;;;;;5020899;28;20414;-50
2023/08/12 10:40:00;;;;;;;7.67;6.23;;;26.10;99.90;;;;;;5020738;28;20484;-51
2023/08/12 10:42:43;;;;;;;5.73;4.90;;;26.10;99.90;;;;;;5002360;28;20442;-53
2023/08/12 10:45:13;;;;;;;7.20;5.83;;;26.10;99.90;;;;;;5001112;28;20463;-60
2023/08/12 10:47:41;;;;;;;6.03;5.47;;;26.20;99.90;;;;;;4998582;28;20478;-59
2023/08/12 10:50:19;;;;;;;6.50;5.90;;;26.30;99.90;;;;;;4997105;28;20540;-62
2023/08/12 10:52:46;;;;;;;7.57;6.20;;;26.20;99.90;;;;;;5005798;28;20454;-52
2023/08/12 10:55:20;;;;;;;7.60;6.07;;;26.20;99.90;;;;;;4981061;28;21009;-56
2023/08/12 10:57:48;;;;;;;8.23;5.90;;;26.20;99.90;;;;;;4987317;28;20441;-61
2023/08/12 11:00:18;;;;;;;6.47;5.93;;;26.30;99.90;;;;;;4996943;28;21015;-60
2023/08/12 11:02:50;;;;;;;6.43;5.90;;;26.40;99.90;;;;;;4998032;28;20445;-59
2023/08/12 11:05:18;;;;;;;5.53;5.13;;;26.50;99.90;;;;;;5020450;28;20438;-49
2023/08/12 11:07:47;;;;;;;6.90;6.20;;;26.50;99.90;;;;;;5020510;28;20446;-46
2023/08/12 11:10:16;;;;;;;6.17;5.67;;;26.60;99.90;;;;;;5020302;28;20445;-51
2023/08/12 11:12:54;;;;;;;6.30;5.70;;;26.70;99.90;;;;;;5020243;28;20422;-46
2023/08/12 11:15:31;;;;;;;5.70;5.20;;;26.60;99.90;;;;;;5020294;28;20454;-45
2023/08/12 11:17:58;;;;;;;7.40;6.20;;;26.50;99.90;;;;;;5011676;28;20517;-60
2023/08/12 11:20:25;;;;;;;6.30;5.17;;;26.40;99.90;;;;;;4996412;28;20580;-61
2023/08/12 11:22:54;;;;;;;6.03;5.30;;;26.40;99.90;;;;;;4996580;28;20487;-60
2023/08/12 11:25:20;;;;;;;7.40;6.23;;;26.40;99.90;;;;;;4996645;28;20497;-62
2023/08/12 11:27:48;;;;;;;5.33;4.80;;;26.30;99.90;;;;;;4996691;28;20449;-61
2023/08/12 11:30:17;;;;;;;6.40;4.30;;;26.30;99.90;;;;;;4996566;28;20480;-59
2023/08/12 11:32:46;;;;;;;4.67;4.27;;;26.30;99.90;;;;;;4996646;28;20788;-61
2023/08/12 11:35:15;;;;;;;4.87;4.47;;;26.30;99.90;;;;;;4996312;28;20982;-61
2023/08/12 11:37:45;;;;;;;5.13;4.63;;;26.20;99.90;;;;;;4996291;28;20949;-61
2023/08/12 11:40:14;;;;;;;5.17;4.67;;;26.00;99.90;;;;;;4998611;28;20549;-60
2023/08/12 11:42:43;;;;;;;4.43;4.03;;;26.00;99.90;;;;;;4998552;28;20488;-62
2023/08/12 11:45:10;;;;;;;5.80;4.20;;;25.90;99.90;;;;;;4996696;28;20469;-60
2023/08/12 11:47:39;;;;;;;4.97;4.57;;;25.90;99.90;;;;;;4996152;28;21144;-60
2023/08/12 11:50:10;;;;;;;4.77;4.33;;;25.80;99.90;;;;;;4996182;28;20462;-63
2023/08/12 11:52:37;;;;;;;6.57;4.63;;;25.80;99.90;;;;;;4976945;28;20462;-62
2023/08/12 11:55:05;;;;;;;4.77;4.30;;;25.70;99.90;;;;;;4977625;28;20535;-62
2023/08/12 11:57:34;;;;;;;6.03;4.67;;;25.80;99.90;;;;;;4977223;28;20455;-61
2023/08/12 12:00:04;;;;;;;6.60;4.53;;;25.90;99.90;;;;;;4979196;28;20612;-61
2023/08/12 12:02:31;;;;;;;5.60;5.00;;;25.90;99.90;;;;;;4980618;28;20538;-59
2023/08/12 12:04:57;;;;;;;5.57;5.07;;;25.90;99.90;;;;;;4982039;28;20541;-59
2023/08/12 12:07:27;;;;;;;5.40;4.97;;;25.90;99.90;;;;;;4982147;28;20466;-61
2023/08/12 12:09:55;;;;;;;5.27;4.87;;;25.90;99.90;;;;;;4981844;28;20872;-62
2023/08/12 12:12:25;;;;;;;5.77;5.23;;;25.90;99.90;;;;;;4977111;28;20582;-60
2023/08/12 12:14:53;;;;;;;7.73;5.07;;;25.90;99.90;;;;;;4976187;28;20904;-61
2023/08/12 12:17:22;;;;;;;5.20;4.70;;;25.90;99.90;;;;;;4976173;28;20491;-60
2023/08/12 12:19:52;;;;;;;6.00;5.40;;;25.80;99.90;;;;;;4976449;28;20479;-59
2023/08/12 12:22:19;;;;;;;5.30;4.80;;;25.80;99.90;;;;;;4976621;28;20506;-60
2023/08/12 12:24:48;;;;;;;5.30;4.80;;;25.70;99.90;;;;;;4988527;28;20517;-60
2023/08/12 12:27:15;;;;;;;6.77;5.33;;;25.60;99.90;;;;;;4995455;28;20478;-62
2023/08/12 12:29:42;;;;;;;5.57;4.70;;;25.60;99.90;;;;;;4994717;28;20482;-60
2023/08/12 12:32:11;;;;;;;4.73;4.27;;;25.50;99.90;;;;;;4995440;28;20470;-61
2023/08/12 12:34:39;;;;;;;5.60;4.67;;;25.40;99.90;;;;;;4995398;28;20908;-62
2023/08/12 12:37:06;;;;;;;4.70;4.20;;;25.40;99.90;;;;;;4995318;28;20473;-62
2023/08/12 12:39:33;;;;;;;5.47;4.70;;;25.30;99.90;;;;;;4994950;28;20542;-60
2023/08/12 12:42:01;;;;;;;5.13;4.40;;;25.10;99.90;;;;;;4995258;28;20497;-61
2023/08/12 12:44:28;;;;;;;5.60;5.10;;;25.00;99.90;;;;;;4998842;28;20919;-60
2023/08/12 12:46:55;;;;;;;6.07;4.33;;;25.00;99.90;;;;;;4998756;28;20493;-60
2023/08/12 12:49:22;;;;;;;9.13;4.80;;;25.10;99.90;;;;;;4998186;28;20546;-60